createdAt,value
2023-09-15T00:00:52.230Z,61.40
2023-09-15T00:03:22.493Z,61.40
2023-09-15T00:05:52.840Z,61.40
2023-09-15T00:08:27.808Z,61.40
2023-09-15T00:10:58.384Z,61.40
2023-09-15T00:13:29.127Z,61.50
2023-09-15T00:15:59.961Z,61.50
2023-09-15T00:18:30.473Z,61.50
2023-09-15T00:21:01.385Z,61.50
2023-09-15T00:23:31.691Z,61.50
2023-09-15T00:26:05.869Z,61.50
2023-09-15T00:28:36.290Z,61.50
2023-09-15T00:31:06.843Z,61.60
2023-09-15T00:33:37.381Z,61.50
2023-09-15T00:36:09.573Z,61.50
2023-09-15T00:38:39.972Z,61.50
2023-09-15T00:41:10.240Z,61.60
2023-09-15T00:43:41.019Z,61.50
2023-09-15T00:46:13.452Z,61.50
2023-09-15T00:48:44.083Z,61.50
2023-09-15T00:51:14.731Z,61.60
2023-09-15T00:53:45.279Z,61.60
2023-09-15T00:56:15.905Z,61.50
2023-09-15T00:58:46.720Z,61.60
2023-09-15T01:01:19.414Z,61.50
2023-09-15T01:03:50.582Z,61.50
2023-09-15T01:06:22.338Z,61.50
2023-09-15T01:08:52.831Z,61.60
2023-09-15T01:11:24.142Z,61.50
2023-09-15T01:13:54.443Z,61.60
2023-09-15T01:17:02.374Z,61.60
2023-09-15T01:20:09.114Z,61.50
2023-09-15T01:23:11.294Z,61.60
2023-09-15T01:25:59.759Z,61.60
2023-09-15T01:28:50.275Z,61.60
2023-09-15T01:31:22.772Z,61.50
2023-09-15T01:33:53.644Z,61.60
2023-09-15T01:36:23.935Z,61.50
2023-09-15T01:38:54.177Z,61.50
2023-09-15T01:41:24.668Z,61.50
2023-09-15T01:43:56.148Z,61.50
2023-09-15T01:46:29.510Z,61.50
2023-09-15T01:49:02.378Z,61.40
2023-09-15T01:51:34.057Z,61.40
2023-09-15T01:54:04.822Z,61.30
2023-09-15T01:56:35.066Z,61.30
2023-09-15T01:59:05.384Z,61.30
2023-09-15T02:01:35.744Z,61.40
2023-09-15T02:04:06.763Z,61.20
2023-09-15T02:06:37.144Z,61.30
2023-09-15T02:09:08.589Z,61.20
2023-09-15T02:11:38.896Z,61.30
2023-09-15T02:14:09.710Z,61.30
2023-09-15T02:16:40.048Z,61.20
2023-09-15T02:19:12.019Z,61.10
2023-09-15T02:21:42.350Z,61.10
2023-09-15T02:24:12.887Z,61.00
2023-09-15T02:26:43.766Z,61.00
2023-09-15T02:29:14.569Z,61.00
2023-09-15T02:31:45.920Z,61.10
2023-09-15T02:34:16.585Z,61.10
2023-09-15T02:36:47.241Z,61.10
2023-09-15T02:39:17.618Z,61.10
2023-09-15T02:41:47.900Z,60.90
2023-09-15T02:44:18.306Z,60.60
2023-09-15T02:46:48.604Z,60.10
2023-09-15T02:49:19.075Z,59.70
2023-09-15T02:51:49.982Z,59.40
2023-09-15T02:54:20.349Z,59.20
2023-09-15T02:56:50.650Z,58.90
2023-09-15T02:59:20.913Z,58.70
2023-09-15T03:01:53.642Z,58.40
2023-09-15T03:04:23.955Z,58.10
2023-09-15T03:06:54.251Z,57.80
2023-09-15T03:09:24.593Z,57.30
2023-09-15T03:11:54.929Z,57.20
2023-09-15T03:14:25.266Z,56.40
2023-09-15T03:16:55.795Z,56.30
2023-09-15T03:19:27.053Z,55.20
2023-09-15T03:21:57.378Z,54.60
2023-09-15T03:24:27.629Z,54.00
2023-09-15T03:26:57.971Z,54.10
2023-09-15T03:29:28.272Z,53.90
2023-09-15T03:31:58.687Z,53.60
2023-09-15T03:34:29.042Z,53.40
2023-09-15T03:36:59.406Z,53.50
2023-09-15T03:39:29.705Z,53.30
2023-09-15T03:41:59.958Z,53.50
2023-09-15T03:44:30.218Z,53.40
2023-09-15T03:47:00.574Z,53.20
2023-09-15T03:49:31.057Z,53.30
2023-09-15T03:52:02.193Z,53.40
2023-09-15T03:54:32.697Z,53.60
2023-09-15T03:57:03.068Z,53.70
2023-09-15T03:59:33.464Z,53.80
2023-09-15T04:02:04.118Z,53.90
2023-09-15T04:04:34.490Z,54.00
2023-09-15T04:07:04.852Z,54.10
2023-09-15T04:09:36.745Z,54.20
2023-09-15T04:12:07.459Z,54.30
2023-09-15T04:14:38.410Z,54.70
2023-09-15T04:17:08.806Z,54.90
2023-09-15T04:19:39.421Z,55.10
2023-09-15T04:22:09.675Z,55.10
2023-09-15T04:24:40.149Z,55.30
2023-09-15T04:27:10.478Z,55.30
2023-09-15T04:30:03.491Z,55.40
2023-09-15T04:32:33.968Z,55.30
2023-09-15T04:35:04.368Z,55.40
2023-09-15T04:37:34.589Z,55.40
2023-09-15T04:40:07.135Z,55.40
2023-09-15T04:42:37.681Z,55.50
2023-09-15T04:45:08.762Z,55.40
2023-09-15T04:47:40.442Z,55.40
2023-09-15T04:50:11.687Z,55.40
2023-09-15T04:52:42.540Z,55.40
2023-09-15T04:55:13.064Z,55.40
2023-09-15T04:57:43.699Z,55.50
2023-09-15T05:00:26.294Z,55.50
2023-09-15T05:03:00.285Z,55.40
2023-09-15T05:05:32.514Z,55.30
2023-09-15T05:08:02.831Z,55.20
2023-09-15T05:10:33.363Z,55.20
2023-09-15T05:13:07.971Z,54.80
2023-09-15T05:15:38.351Z,54.40
2023-09-15T05:18:08.823Z,54.00
2023-09-15T05:20:39.244Z,53.30
2023-09-15T05:23:09.518Z,52.20
2023-09-15T05:25:39.843Z,52.00
2023-09-15T05:28:10.237Z,51.90
2023-09-15T05:30:41.296Z,51.00
2023-09-15T05:33:12.380Z,50.70
2023-09-15T05:35:42.862Z,50.70
2023-09-15T05:38:13.351Z,51.10
2023-09-15T05:40:43.854Z,51.50
2023-09-15T05:43:14.254Z,52.40
2023-09-15T05:45:44.855Z,51.40
2023-09-15T05:48:21.142Z,51.20
2023-09-15T05:50:52.675Z,51.30
2023-09-15T05:53:24.148Z,50.50
2023-09-15T05:55:55.154Z,51.20
2023-09-15T05:58:25.994Z,50.70
2023-09-15T06:00:59.016Z,50.60
2023-09-15T06:03:29.687Z,50.20
2023-09-15T06:05:59.990Z,49.60
2023-09-15T06:08:32.951Z,50.00
2023-09-15T06:11:06.377Z,49.80
2023-09-15T06:13:39.775Z,49.80
2023-09-15T06:16:10.708Z,50.30
2023-09-15T06:18:41.031Z,50.20
2023-09-15T06:21:11.412Z,49.60
2023-09-15T06:23:41.767Z,50.20
2023-09-15T06:26:12.321Z,50.30
2023-09-15T06:28:42.696Z,50.30
2023-09-15T06:31:13.702Z,49.80
2023-09-15T06:33:44.080Z,49.40
2023-09-15T06:36:14.826Z,49.80
2023-09-15T06:38:45.801Z,50.60
2023-09-15T06:41:16.298Z,50.10
2023-09-15T06:43:47.022Z,50.30
2023-09-15T06:46:21.935Z,50.60
2023-09-15T06:48:53.016Z,50.90
2023-09-15T06:51:23.898Z,51.20
2023-09-15T06:53:55.064Z,51.40
2023-09-15T06:56:27.738Z,51.50
2023-09-15T06:58:58.249Z,51.60
2023-09-15T07:01:28.699Z,51.90
2023-09-15T07:03:59.057Z,52.10
2023-09-15T07:06:29.997Z,52.50
2023-09-15T07:09:00.213Z,52.70
2023-09-15T07:11:30.484Z,52.80
2023-09-15T07:14:00.702Z,53.00
2023-09-15T07:16:31.283Z,53.10
2023-09-15T07:19:03.294Z,53.10
2023-09-15T07:21:34.065Z,53.10
2023-09-15T07:24:04.791Z,53.10
2023-09-15T07:26:35.469Z,53.10
2023-09-15T07:29:06.511Z,53.10
2023-09-15T07:31:40.212Z,53.10
2023-09-15T07:34:10.718Z,53.10
2023-09-15T07:36:40.984Z,53.30
2023-09-15T07:39:11.539Z,53.30
2023-09-15T07:41:41.845Z,53.50
2023-09-15T07:44:12.522Z,53.50
2023-09-15T07:46:43.434Z,53.50
2023-09-15T07:49:15.188Z,53.70
2023-09-15T07:51:46.421Z,53.70
2023-09-15T07:54:16.968Z,53.70
2023-09-15T07:56:47.263Z,53.80
2023-09-15T07:59:18.029Z,53.80
2023-09-15T08:01:48.328Z,53.90
2023-09-15T08:04:18.789Z,53.90
2023-09-15T08:06:49.846Z,53.90
2023-09-15T08:09:20.499Z,54.00
2023-09-15T08:11:50.794Z,54.00
2023-09-15T08:14:21.577Z,54.10
2023-09-15T08:16:52.200Z,54.30
2023-09-15T08:19:26.170Z,54.30
2023-09-15T08:21:56.599Z,54.40
2023-09-15T08:24:27.360Z,54.50
2023-09-15T08:26:57.691Z,54.50
2023-09-15T08:29:28.160Z,54.70
2023-09-15T08:31:58.451Z,54.70
2023-09-15T08:34:29.141Z,54.70
2023-09-15T08:36:59.498Z,54.70
2023-09-15T08:39:30.020Z,54.80
2023-09-15T08:42:07.773Z,54.90
2023-09-15T08:44:39.373Z,55.00
2023-09-15T08:47:10.239Z,55.00
2023-09-15T08:49:40.795Z,55.10
2023-09-15T08:52:11.941Z,55.20
2023-09-15T08:54:42.507Z,55.20
2023-09-15T08:57:13.109Z,55.30
2023-09-15T08:59:44.280Z,55.30
2023-09-15T09:02:17.475Z,55.30
2023-09-15T09:04:48.080Z,55.40
2023-09-15T09:07:19.365Z,55.50
2023-09-15T09:09:51.289Z,55.50
2023-09-15T09:12:21.650Z,55.50
2023-09-15T09:14:57.737Z,55.60
2023-09-15T09:17:28.481Z,55.60
2023-09-15T09:19:59.703Z,55.70
2023-09-15T09:22:30.629Z,55.70
2023-09-15T09:25:02.423Z,55.80
2023-09-15T09:27:37.306Z,55.80
2023-09-15T09:30:08.769Z,55.90
2023-09-15T09:32:42.172Z,55.90
2023-09-15T09:35:12.441Z,55.90
2023-09-15T09:37:42.780Z,56.00
2023-09-15T09:40:14.527Z,56.00
2023-09-15T09:42:48.579Z,56.00
2023-09-15T09:45:20.044Z,56.10
2023-09-15T09:47:53.060Z,56.20
2023-09-15T09:50:24.999Z,56.20
2023-09-15T09:52:56.388Z,56.20
2023-09-15T09:55:30.456Z,56.20
2023-09-15T09:58:10.533Z,56.30
2023-09-15T10:00:42.202Z,56.30
2023-09-15T10:03:12.652Z,56.40
2023-09-15T10:05:43.313Z,56.50
2023-09-15T10:08:15.045Z,56.50
2023-09-15T10:10:53.985Z,56.50
2023-09-15T10:13:25.584Z,56.50
2023-09-15T10:15:58.006Z,56.50
2023-09-15T10:18:28.993Z,56.50
2023-09-15T10:21:00.417Z,56.60
2023-09-15T10:23:33.024Z,56.60
2023-09-15T10:26:09.971Z,56.70
2023-09-15T10:28:42.614Z,56.70
2023-09-15T10:31:14.316Z,56.70
2023-09-15T10:33:46.166Z,56.70
2023-09-15T10:36:18.586Z,56.70
2023-09-15T10:38:50.922Z,56.70
2023-09-15T10:41:30.038Z,56.80
2023-09-15T10:44:00.809Z,56.80
2023-09-15T10:46:39.542Z,56.90
2023-09-15T10:49:21.242Z,56.90
2023-09-15T10:51:56.880Z,56.90
2023-09-15T10:54:41.125Z,57.00
2023-09-15T10:57:12.739Z,57.00
2023-09-15T10:59:43.145Z,57.10
2023-09-15T11:02:13.810Z,57.00
2023-09-15T11:04:44.770Z,57.00
2023-09-15T11:07:17.038Z,57.00
2023-09-15T11:09:47.781Z,57.10
2023-09-15T11:12:18.586Z,57.10
2023-09-15T11:14:48.929Z,57.20
2023-09-15T11:17:22.474Z,57.20
2023-09-15T11:19:53.145Z,57.30
2023-09-15T11:22:23.976Z,57.30
2023-09-15T11:25:14.483Z,58.00
2023-09-15T11:27:51.190Z,57.40
2023-09-15T11:30:22.053Z,57.40
2023-09-15T11:32:52.617Z,57.50
2023-09-15T11:35:23.520Z,57.50
2023-09-15T11:37:56.355Z,57.50
2023-09-15T11:40:27.328Z,57.50
2023-09-15T11:43:05.142Z,57.60
2023-09-15T11:45:36.025Z,57.60
2023-09-15T11:48:08.099Z,57.80
2023-09-15T11:50:39.080Z,57.80
2023-09-15T11:53:09.592Z,57.80
2023-09-15T11:55:40.269Z,57.80
2023-09-15T11:58:10.815Z,58.50
2023-09-15T12:00:41.165Z,57.90
2023-09-15T12:03:11.808Z,57.90
2023-09-15T12:05:43.111Z,58.00
2023-09-15T12:08:16.280Z,58.60
2023-09-15T12:10:54.680Z,58.10
2023-09-15T12:13:41.325Z,58.10
2023-09-15T12:16:22.501Z,58.10
2023-09-15T12:18:54.314Z,58.10
2023-09-15T12:21:29.235Z,58.10
2023-09-15T12:24:14.860Z,58.10
2023-09-15T12:26:46.101Z,58.10
2023-09-15T12:29:18.037Z,58.10
2023-09-15T12:31:48.452Z,58.10
2023-09-15T12:34:25.243Z,58.20
2023-09-15T12:36:56.166Z,58.20
2023-09-15T12:39:27.325Z,58.20
2023-09-15T12:42:15.092Z,58.80
2023-09-15T12:44:46.347Z,58.20
2023-09-15T12:47:17.118Z,58.20
2023-09-15T12:49:47.485Z,58.20
2023-09-15T12:52:17.938Z,58.20
2023-09-15T12:54:48.297Z,58.30
2023-09-15T12:57:18.606Z,58.30
2023-09-15T12:59:48.945Z,59.00
2023-09-15T13:02:20.772Z,58.30
2023-09-15T13:04:51.529Z,58.40
2023-09-15T13:07:22.143Z,58.40
2023-09-15T13:09:52.606Z,58.40
2023-09-15T13:12:22.973Z,58.40
2023-09-15T13:14:53.690Z,58.40
2023-09-15T13:17:24.092Z,58.40
2023-09-15T13:19:54.567Z,59.10
2023-09-15T13:22:25.579Z,58.40
2023-09-15T13:24:58.793Z,58.40
2023-09-15T13:27:31.250Z,58.40
2023-09-15T13:30:02.625Z,58.40
2023-09-15T13:32:33.023Z,58.40
2023-09-15T13:35:04.092Z,58.50
2023-09-15T13:37:34.861Z,58.50
2023-09-15T13:40:06.466Z,58.40
2023-09-15T13:42:38.970Z,58.50
2023-09-15T13:45:10.486Z,58.50
2023-09-15T13:47:40.953Z,58.50
2023-09-15T13:50:11.440Z,59.10
2023-09-15T13:52:42.906Z,58.50
2023-09-15T13:55:13.445Z,58.50
2023-09-15T13:57:43.827Z,58.50
2023-09-15T14:00:14.538Z,58.50
2023-09-15T14:02:44.890Z,58.50
2023-09-15T14:05:15.297Z,58.60
2023-09-15T14:07:45.616Z,58.60
2023-09-15T14:10:15.848Z,58.60
2023-09-15T14:12:46.384Z,58.60
2023-09-15T14:15:16.875Z,58.60
2023-09-15T14:17:47.501Z,58.60
2023-09-15T14:20:17.935Z,59.20
2023-09-15T14:22:48.286Z,58.60
2023-09-15T14:25:19.388Z,58.60
2023-09-15T14:27:49.712Z,58.60
2023-09-15T14:30:20.280Z,58.60
2023-09-15T14:32:50.675Z,58.60
2023-09-15T14:35:22.596Z,58.60
2023-09-15T14:37:52.968Z,58.60
2023-09-15T14:40:23.276Z,58.60
2023-09-15T14:42:53.592Z,58.60
2023-09-15T14:45:27.288Z,58.70
2023-09-15T14:48:05.819Z,58.60
2023-09-15T14:50:37.233Z,58.60
2023-09-15T14:53:07.651Z,58.60
2023-09-15T14:55:38.104Z,58.60
2023-09-15T14:58:08.529Z,58.60
2023-09-15T15:00:39.364Z,58.60
2023-09-15T15:03:09.864Z,58.60
2023-09-15T15:05:40.336Z,58.60
2023-09-15T15:08:11.145Z,58.60
2023-09-15T15:10:41.511Z,58.50
2023-09-15T15:13:12.421Z,58.60
2023-09-15T15:15:49.666Z,58.50
2023-09-15T15:18:22.684Z,58.50
2023-09-15T15:20:55.224Z,58.50
2023-09-15T15:23:25.521Z,58.50
2023-09-15T15:25:56.605Z,58.50
2023-09-15T15:28:26.907Z,58.50
2023-09-15T15:30:57.968Z,58.50
2023-09-15T15:33:28.398Z,58.50
2023-09-15T15:36:09.615Z,58.50
2023-09-15T15:38:40.432Z,58.50
2023-09-15T15:41:12.770Z,58.50
2023-09-15T15:43:43.489Z,58.50
2023-09-15T15:46:13.745Z,58.50
2023-09-15T15:48:44.053Z,58.50
2023-09-15T15:51:14.390Z,58.50
2023-09-15T15:53:44.765Z,58.50
2023-09-15T15:56:15.696Z,58.50
2023-09-15T15:58:46.114Z,58.50
2023-09-15T16:01:16.644Z,58.50
2023-09-15T16:03:47.160Z,58.50
2023-09-15T16:06:17.625Z,58.50
2023-09-15T16:08:48.109Z,58.50
2023-09-15T16:11:18.849Z,58.50
2023-09-15T16:13:49.310Z,58.50
2023-09-15T16:16:19.681Z,58.50
2023-09-15T16:18:50.218Z,58.50
2023-09-15T16:21:20.861Z,59.10
2023-09-15T16:23:51.174Z,58.50
2023-09-15T16:26:22.244Z,58.50
2023-09-15T16:28:52.701Z,58.50
2023-09-15T16:31:23.066Z,58.50
2023-09-15T16:33:53.658Z,58.50
2023-09-15T16:36:24.214Z,58.50
2023-09-15T16:38:59.067Z,58.60
2023-09-15T16:41:30.798Z,58.50
2023-09-15T16:44:01.120Z,58.50
2023-09-15T16:46:31.576Z,58.50
2023-09-15T16:49:01.896Z,58.60
2023-09-15T16:51:32.255Z,58.60
2023-09-15T16:54:02.610Z,58.60
2023-09-15T16:56:32.866Z,58.60
2023-09-15T16:59:03.118Z,58.60
2023-09-15T17:01:33.430Z,58.50
2023-09-15T17:04:03.839Z,58.50
2023-09-15T17:06:34.443Z,58.50
2023-09-15T17:09:04.931Z,58.50
2023-09-15T17:11:37.486Z,58.60
2023-09-15T17:14:07.754Z,58.60
2023-09-15T17:16:38.132Z,58.60
2023-09-15T17:19:09.531Z,58.50
2023-09-15T17:21:39.888Z,58.60
2023-09-15T17:24:11.172Z,58.60
2023-09-15T17:26:49.081Z,58.60
2023-09-15T17:29:19.821Z,58.60
2023-09-15T17:31:50.201Z,58.60
2023-09-15T17:34:20.498Z,58.60
2023-09-15T17:36:51.151Z,58.60
2023-09-15T17:39:21.660Z,58.60
2023-09-15T17:41:52.303Z,58.70
2023-09-15T17:44:22.685Z,58.60
2023-09-15T17:46:53.520Z,58.70
2023-09-15T17:49:23.900Z,58.70
2023-09-15T17:51:55.175Z,58.70
2023-09-15T17:54:27.474Z,58.70
2023-09-15T17:56:57.785Z,58.60
2023-09-15T17:59:28.120Z,58.60
2023-09-15T18:01:58.720Z,58.70
2023-09-15T18:04:29.014Z,58.70
2023-09-15T18:06:59.303Z,58.70
2023-09-15T18:09:29.618Z,58.70
2023-09-15T18:12:00.103Z,58.70
2023-09-15T18:14:30.443Z,58.70
2023-09-15T18:17:00.809Z,58.70
2023-09-15T18:19:31.088Z,58.70
2023-09-15T18:22:01.460Z,58.70
2023-09-15T18:24:32.964Z,58.70
2023-09-15T18:27:03.326Z,58.80
2023-09-15T18:29:33.706Z,58.80
2023-09-15T18:32:04.986Z,58.80
2023-09-15T18:34:35.435Z,58.80
2023-09-15T18:37:06.841Z,58.80
2023-09-15T18:39:37.227Z,58.80
2023-09-15T18:42:07.713Z,58.80
2023-09-15T18:44:38.511Z,58.80
2023-09-15T18:47:09.698Z,58.80
2023-09-15T18:49:43.316Z,58.80
2023-09-15T18:52:14.336Z,58.80
2023-09-15T18:54:44.739Z,58.80
2023-09-15T18:57:14.996Z,58.90
2023-09-15T18:59:45.271Z,58.80
2023-09-15T19:02:15.643Z,58.80
2023-09-15T19:04:46.164Z,58.80
2023-09-15T19:07:16.447Z,58.90
2023-09-15T19:09:46.705Z,58.90
2023-09-15T19:12:17.084Z,58.90
2023-09-15T19:14:47.410Z,58.90
2023-09-15T19:17:18.669Z,58.90
2023-09-15T19:19:48.951Z,58.90
2023-09-15T19:22:19.193Z,58.90
2023-09-15T19:24:50.461Z,58.90
2023-09-15T19:27:21.112Z,58.90
2023-09-15T19:29:51.381Z,58.90
2023-09-15T19:32:21.741Z,58.90
2023-09-15T19:34:52.725Z,58.90
2023-09-15T19:37:25.190Z,58.90
2023-09-15T19:39:55.886Z,58.90
2023-09-15T19:42:27.070Z,59.00
2023-09-15T19:44:57.542Z,59.00
2023-09-15T19:47:28.043Z,59.00
2023-09-15T19:49:58.331Z,59.00
2023-09-15T19:52:32.271Z,59.00
2023-09-15T19:55:02.880Z,59.00
2023-09-15T19:57:59.360Z,59.00
2023-09-15T20:00:29.846Z,58.90
2023-09-15T20:03:06.606Z,59.10
2023-09-15T20:05:37.031Z,59.00
2023-09-15T20:08:07.544Z,59.00
2023-09-15T20:10:37.971Z,59.10
2023-09-15T20:13:09.892Z,59.20
2023-09-15T20:15:42.337Z,59.20
2023-09-15T20:18:13.433Z,59.20
2023-09-15T20:20:47.000Z,59.20
2023-09-15T20:23:18.285Z,59.20
2023-09-15T20:25:49.303Z,59.20
2023-09-15T20:28:20.767Z,59.30
2023-09-15T20:30:51.240Z,59.30
2023-09-15T20:33:21.960Z,59.30
2023-09-15T20:35:52.495Z,59.30
2023-09-15T20:38:23.045Z,59.40
2023-09-15T20:41:00.980Z,59.30
2023-09-15T20:43:31.428Z,59.20
2023-09-15T20:46:01.968Z,59.40
2023-09-15T20:48:35.548Z,59.30
2023-09-15T20:51:05.835Z,59.40
2023-09-15T20:53:36.781Z,59.50
2023-09-15T20:56:06.997Z,59.50
2023-09-15T20:58:38.952Z,59.30
2023-09-15T21:01:09.723Z,59.40
2023-09-15T21:03:40.206Z,59.50
2023-09-15T21:06:10.615Z,59.40
2023-09-15T21:08:41.085Z,59.20
2023-09-15T21:11:11.690Z,59.40
2023-09-15T21:13:44.356Z,59.50
2023-09-15T21:16:16.733Z,59.20
2023-09-15T21:18:48.754Z,59.40
2023-09-15T21:21:19.248Z,59.20
2023-09-15T21:23:50.908Z,59.50
2023-09-15T21:26:21.242Z,59.70
2023-09-15T21:28:51.663Z,59.70
2023-09-15T21:31:22.069Z,59.40
2023-09-15T21:33:52.824Z,59.70
2023-09-15T21:36:23.221Z,59.60
2023-09-15T21:38:53.526Z,59.70
2023-09-15T21:41:25.646Z,59.70
2023-09-15T21:43:56.302Z,59.60
2023-09-15T21:46:26.636Z,59.80
2023-09-15T21:48:57.191Z,59.80
2023-09-15T21:51:27.516Z,59.50
2023-09-15T21:53:57.836Z,59.80
2023-09-15T21:56:29.300Z,59.80
2023-09-15T21:58:59.801Z,59.50
2023-09-15T22:01:30.613Z,59.80
2023-09-15T22:04:04.086Z,59.80
2023-09-15T22:06:34.517Z,60.00
2023-09-15T22:09:05.259Z,59.90
2023-09-15T22:11:35.884Z,59.90
2023-09-15T22:14:06.746Z,60.10
2023-09-15T22:16:37.233Z,60.20
2023-09-15T22:19:09.245Z,60.20
2023-09-15T22:21:42.964Z,60.40
2023-09-15T22:24:13.378Z,60.50
2023-09-15T22:26:44.598Z,60.50
2023-09-15T22:29:14.919Z,60.50
2023-09-15T22:31:45.336Z,60.50
2023-09-15T22:34:15.976Z,60.60
2023-09-15T22:36:46.325Z,60.70
2023-09-15T22:39:17.366Z,60.60
2023-09-15T22:41:47.574Z,60.70
2023-09-15T22:44:17.853Z,60.70
2023-09-15T22:46:50.137Z,60.70
2023-09-15T22:49:22.518Z,60.80
2023-09-15T22:51:53.421Z,60.70
2023-09-15T22:54:23.859Z,60.80
2023-09-15T22:56:54.262Z,60.90
2023-09-15T22:59:28.394Z,61.00
2023-09-15T23:01:59.087Z,61.00
2023-09-15T23:04:29.404Z,61.00
2023-09-15T23:06:59.718Z,61.20
2023-09-15T23:09:30.111Z,61.20
2023-09-15T23:12:02.356Z,61.30
2023-09-15T23:14:32.943Z,61.40
2023-09-15T23:17:03.235Z,61.50
2023-09-15T23:19:33.599Z,61.50
2023-09-15T23:22:04.595Z,61.50
2023-09-15T23:24:35.361Z,61.60
2023-09-15T23:27:06.153Z,61.60
2023-09-15T23:29:36.625Z,61.80
2023-09-15T23:32:08.506Z,61.80
2023-09-15T23:34:38.892Z,61.80
2023-09-15T23:37:09.862Z,61.90
2023-09-15T23:39:41.227Z,61.90
2023-09-15T23:42:11.555Z,61.90
2023-09-15T23:44:42.976Z,62.00
2023-09-15T23:47:14.055Z,62.10
2023-09-15T23:49:44.394Z,62.20
2023-09-15T23:52:15.506Z,62.20
2023-09-15T23:54:45.934Z,62.20
2023-09-15T23:57:16.372Z,62.10
2023-09-15T23:59:46.738Z,62.10
